Sille-le-Guillaume (72) - O

Date : 18/03/2017
Distance : 2,000 km

Place Nom Licence Catégorie Club Temps min/km CN à J-60 Points Différence Nouveau CN
1 BOUSSER Etienne 1843 H70 5702GE 0:22:29 11'14 6179 5988 -191 6186
2 TAILLANDIER Guy 1583 H70 0801GE 0:26:01 13'00 5370 5175 -195 5352
3 PREVOST Pascale 922 D60 7707IF 0:27:39 13'49 4693 4869 +176 4809
4 ROBERT Christian 1086 H70 7004BF 0:31:11 15'35 4222 4317 +95 4243
5 HUMBERTCLAUDE J-Paul 16205 H70 5909HF 0:31:16 15'38 4224 4306 +82 4276
6 CAMPBELL Jane 17406 D60 7807IF 0:32:57 16'28 3987 4086 +99 4004
7 DEVILLE Nelly 2401 D65 5402GE 0:33:33 16'46 3832 4013 +181 3850
8 SIMONET Jean 930 H75 7707IF 0:34:00 17'00 4142 3960 -182 4206
9 DIEUDONNE Madeleine 1380 D70 7808IF 0:34:45 17'22 3320 3874 +554 3377
10 ROBERT Martine 1087 D65 7004BF 0:35:04 17'32 3475 3839 +364 3513
11 RICHARD Nicole 14245 D65 0207HF 0:36:05 18'02 3713 3731 +18 3715
12 CHALOPIN Catherine 3674 D65 2105BF 0:36:36 18'18 3951 3678 -273 3964
13 EJSMONT Jean 5597 H70 6203HF 0:36:42 18'21 3668 3660
14 ANNE Brigitte 1672 D65 0111AR 0:36:46 18'23 4260 3662 -598 4247
15 LEFRANÇOIS Gérard 1938 H70 9502IF 0:36:52 18'26 3713 3652 -61 3688
16 PIGER Albert 116 H80 4504CE 0:37:51 18'55 3288 3557 +269 3399
17 ABISSE Jacques 703 H70 2508BF 0:37:53 18'56 3892 3554 -338 3892
18 AGUILLE Veronique 9904 D65 1403NM 0:39:33 19'46 2494 3404 +910 2653
19 LEGUEN Joseph 8138 H70 2208BR 0:40:09 20'04 3372 3353 -19 3452
20 LAMBERT Nadine 5607 D60 7203PL 0:40:37 20'18 3033 3315 +282 3194
21 CALANDOT Michelle 2927 D60 1403NM 0:41:24 20'42 2542 3252 +710 2606
22 DOMENICI J-Claude 1052 H75 1705NA 0:42:26 21'13 3023 3173 +150 3119
23 CROCHET Gerard 2817 H75 1705NA 0:43:28 21'44 2724 3097 +373 2780
24 BAUDRY J-Claude 1693 H70 1705NA 0:44:06 22'03 3202 3053 -149 3225
25 DIEUDONNE Roland 1381 H70 7808IF 0:47:43 23'51 2524 2821 +297 2576
26 TORZ-DRUON Magali 10081 D65 5906HF 0:48:14 24'07 2197 2791 +594 2486
27 MOULIERE M-Bernadette 2888 D70 0207HF 0:48:44 24'22 2976 2763 -213 2978
28 LECOYER Annick 2885 D65 0207HF 0:49:28 24'44 2988 2722 -266 2987
29 FRANTZ Francoise 6886 D70 2904BR 0:50:37 25'18 2851 2660 -191 2873
30 DENIS Martine 12377 D70 9404IF 0:52:56 26'28 2550 2543 -7 2556
31 RUAUD Agnes 739 D65 2508BF 0:56:39 28'19 2624 2377 -247 2624
32 CABON Monique 96 D65 2904BR 0:56:54 28'27 2725 2366 -359 2755
33 TESSIER Ariane 2004 D60 7709IF 0:57:20 28'40 2745 2348 -397 2723
34 DESHAYES Jacqueline 13582 D60 4504CE 0:58:17 29'08 1564 2310 +746 2114
35 LAUNEY Noella 11368 D75 7203PL 0:58:46 29'23 1905 2291 +386 2101
36 LEFOUEST Joseph 1000 H80 2904BR 0:59:00 29'30 1967 2282 +315 2372
37 HERVE-JOUSSE Odile 13784 D60 7808IF 1:03:40 31'50 3725 2115 -1610 3658
38 THEVENON Catherine 29294 D65 1705NA 1:05:39 32'49 2613 2051 -562 2584
39 POUPIER Claudine 13991 D65 7203PL 1:14:33 37'16 2369 1806 -563 2369
40 ALLANCON Claudine 14632 D65 2906BR 1:16:07 38'03 1498 1769 +271 1633
41 BELDOWSKI Andrew 18509 H80 2208BR 1:16:22 38'11 1265 1763 +498 1268
42 LUDEWIG-JAMES Carol 15894 D75 5907HF 1:16:56 38'28 1552 1750 +198 1666
43 PIGER Ghislaine 117 D75 4504CE 1:54:54 57'27 2293 1172 -1121 2293
44 GUICHARDON Georges 570 H80 4504CE 2:00:05 60'02 1542 1121 -421 1542
CABON Herve 95 H70 2904BR pm None 4511 0 4511
HARDEL Elisabeth 8998 D65 1403NM pm None 2308 0 2308